Time;durP1;ratioP1;P1;durP2;ratioP2;P2;SDS_P1;SDS_P2;PMS_P1;PMS_P2;Temp;Humidity;BMP_temperature;BMP_pressure;BME280_temperature;BME280_humidity;BME280_pressure;Samples;Min_cycle;Max_cycle;Signal;HPM_P1;HPM_P2
2022/06/01 00:01:49;;;;;;;11.43;7.83;;;;;;;11.61;70.36;101226.14;1748827;80;22561;-88
2022/06/01 00:04:13;;;;;;;11.95;8.13;;;;;;;11.62;70.43;101230.59;1753659;81;21047;-88
2022/06/01 00:06:45;;;;;;;11.93;7.85;;;;;;;11.63;70.43;101239.38;1763946;80;21034;-86
2022/06/01 00:09:12;;;;;;;9.00;7.45;;;;;;;11.61;70.50;101229.22;1778035;80;21114;-86
2022/06/01 00:11:39;;;;;;;15.28;8.38;;;;;;;11.59;70.50;101225.64;1757172;80;21567;-86
2022/06/01 00:14:06;;;;;;;10.65;8.88;;;;;;;11.56;70.60;101216.31;1781376;80;21750;-87
2022/06/01 00:16:33;;;;;;;10.43;8.13;;;;;;;11.56;70.73;101217.64;1766036;80;21047;-86
2022/06/01 00:19:01;;;;;;;14.75;8.20;;;;;;;11.57;70.83;101220.32;1772518;80;21141;-86
2022/06/01 00:21:28;;;;;;;11.75;8.00;;;;;;;11.57;70.83;101220.32;1698991;83;21122;-89
2022/06/01 00:23:55;;;;;;;9.73;7.78;;;;;;;11.58;70.91;101217.25;1727118;82;21123;-88
2022/06/01 00:26:21;;;;;;;8.45;7.25;;;;;;;11.59;70.90;101213.78;1765374;80;21870;-86
2022/06/01 00:28:48;;;;;;;12.78;8.15;;;;;;;11.61;70.93;101209.00;1787006;80;21096;-88
2022/06/01 00:31:15;;;;;;;11.80;8.35;;;;;;;11.62;70.97;101204.22;1770381;80;21090;-86
2022/06/01 00:33:42;;;;;;;11.30;8.15;;;;;;;11.63;71.05;101203.34;1778754;80;21018;-86
2022/06/01 00:36:10;;;;;;;9.20;7.15;;;;;;;11.64;70.96;101185.38;1773753;79;21047;-86
2022/06/01 00:38:51;;;;;;;8.48;7.15;;;;;;;11.67;71.07;101183.23;1774677;80;22537;-87
2022/06/01 00:41:18;;;;;;;7.47;6.78;;;;;;;11.71;71.15;101177.19;1758513;81;21547;-87
2022/06/01 00:43:45;;;;;;;7.72;5.97;;;;;;;11.76;71.35;101178.64;1757285;80;21061;-89
2022/06/01 00:46:15;;;;;;;10.08;7.10;;;;;;;11.84;71.57;101171.81;1779224;80;22196;-87
2022/06/01 00:48:46;;;;;;;9.40;6.30;;;;;;;11.95;71.66;101177.42;1758843;81;21039;-88
2022/06/01 00:51:14;;;;;;;11.97;7.10;;;;;;;12.03;71.68;101179.42;1762426;80;22579;-87
2022/06/01 00:53:41;;;;;;;8.85;7.05;;;;;;;12.12;71.66;101169.50;1788431;80;21094;-86
2022/06/01 00:56:13;;;;;;;8.50;7.05;;;;;;;12.20;71.67;101164.02;1733877;81;21047;-88
2022/06/01 00:58:41;;;;;;;8.75;7.30;;;;;;;12.21;71.62;101156.55;1763995;80;21015;-88
2022/06/01 01:01:15;;;;;;;8.68;6.78;;;;;;;12.32;71.53;101161.21;1775083;80;21028;-88
2022/06/01 01:03:45;;;;;;;9.30;6.83;;;;;;;12.35;71.47;101159.94;1763476;80;21809;-87
2022/06/01 01:06:22;;;;;;;10.23;7.92;;;;;;;12.37;71.42;101148.98;1783166;80;21058;-88
2022/06/01 01:08:49;;;;;;;9.33;7.97;;;;;;;12.39;71.41;101142.03;1765820;80;21484;-88
2022/06/01 01:11:22;;;;;;;12.25;8.60;;;;;;;12.39;71.46;101140.27;1785807;80;21049;-88
2022/06/01 01:13:50;;;;;;;12.20;9.48;;;;;;;12.39;71.48;101138.95;1776908;79;21043;-89
2022/06/01 01:16:31;;;;;;;10.88;9.08;;;;;;;12.39;71.51;101131.47;1788681;79;21834;-89
2022/06/01 01:18:59;;;;;;;18.30;9.10;;;;;;;12.37;71.56;101128.78;1784004;80;21006;-87
2022/06/01 01:21:56;;;;;;;11.57;9.20;;;;;;;12.38;71.59;101128.34;1775997;80;21043;-87
2022/06/01 01:24:37;;;;;;;10.85;8.93;;;;;;;12.38;71.63;101129.23;1748569;80;21076;-86
2022/06/01 01:27:05;;;;;;;10.05;8.80;;;;;;;12.38;71.66;101130.98;1719655;81;21069;-88
2022/06/01 01:29:41;;;;;;;12.78;9.28;;;;;;;12.38;71.71;101123.06;1741017;81;22503;-87
2022/06/01 01:32:11;;;;;;;9.85;8.30;;;;;;;12.36;71.77;101123.03;1745080;81;21070;-87
2022/06/01 01:34:41;;;;;;;10.13;8.20;;;;;;;12.39;71.77;101124.43;1738392;81;21069;-87
2022/06/01 01:37:18;;;;;;;12.43;8.15;;;;;;;12.39;71.80;101136.75;1729809;81;21124;-86
2022/06/01 01:39:44;;;;;;;9.53;7.78;;;;;;;12.38;71.87;101130.98;1754517;81;21106;-87
2022/06/01 01:42:13;;;;;;;11.88;7.80;;;;;;;12.38;71.94;101125.70;1736897;81;21691;-88
2022/06/01 01:45:01;;;;;;;8.75;7.85;;;;;;;12.39;72.01;101120.47;1750297;81;21066;-88
2022/06/01 01:47:28;;;;;;;9.03;8.13;;;;;;;12.40;72.06;101115.64;1746151;81;21063;-88
2022/06/01 01:49:57;;;;;;;10.23;8.15;;;;;;;12.41;72.12;101107.31;1733076;82;21576;-86
2022/06/01 01:52:24;;;;;;;10.40;8.53;;;;;;;12.43;72.15;101106.48;1748779;81;21082;-92
2022/06/01 01:55:06;;;;;;;9.58;7.72;;;;;;;12.44;72.13;101095.08;1741204;81;21714;-92
2022/06/01 01:58:06;;;;;;;11.20;8.40;;;;;;;12.43;72.21;101093.72;1736720;81;20961;-92
2022/06/01 02:00:43;;;;;;;10.80;8.78;;;;;;;12.43;72.22;101088.00;1750920;81;21079;-92
2022/06/01 02:13:24;;;;;;;10.32;8.40;;;;;;;12.48;72.55;101060.40;1719761;81;21440;-87
2022/06/01 02:15:51;;;;;;;9.05;8.08;;;;;;;12.48;72.48;101059.08;1730577;81;21650;-89
2022/06/01 02:18:27;;;;;;;10.90;8.50;;;;;;;12.36;72.49;101050.87;1722492;81;21050;-89
2022/06/01 02:20:59;;;;;;;10.38;8.35;;;;;;;12.44;72.59;101063.40;1763722;81;21039;-94
2022/06/01 02:23:31;;;;;;;10.78;8.88;;;;;;;12.44;72.60;101071.72;1762382;81;21789;-90
2022/06/01 02:29:57;;;;;;;9.93;8.58;;;;;;;12.41;72.65;101067.28;1712804;83;21138;-89
2022/06/01 02:32:26;;;;;;;10.78;9.05;;;;;;;12.39;72.71;101074.71;1681753;85;21124;-89
2022/06/01 02:34:54;;;;;;;11.83;8.93;;;;;;;12.35;72.81;101071.11;1748231;82;21062;-89
2022/06/01 02:37:21;;;;;;;10.88;9.23;;;;;;;12.34;72.79;101071.06;1744448;82;22434;-89
2022/06/01 02:39:52;;;;;;;12.03;8.53;;;;;;;12.34;72.96;101069.31;1755989;81;21032;-92
2022/06/01 02:42:25;;;;;;;10.93;8.55;;;;;;;12.33;73.03;101065.31;1762719;81;21121;-89
2022/06/01 02:45:08;;;;;;;11.33;8.78;;;;;;;12.34;73.19;101070.63;1719659;82;21085;-89
2022/06/01 02:47:38;;;;;;;10.88;9.18;;;;;;;12.35;73.19;101062.27;1752755;81;21025;-90
2022/06/01 02:50:24;;;;;;;8.53;7.70;;;;;;;12.38;73.34;101054.00;1752731;81;22579;-89
2022/06/01 02:52:51;;;;;;;9.30;8.15;;;;;;;12.40;73.37;101052.72;1751897;80;21073;-88
2022/06/01 02:55:18;;;;;;;10.20;8.30;;;;;;;12.46;73.51;101054.16;1710168;83;21101;-88
2022/06/01 02:57:45;;;;;;;10.50;8.18;;;;;;;12.48;73.39;101063.04;1745020;81;21521;-89
2022/06/01 03:00:23;;;;;;;11.38;8.55;;;;;;;12.50;73.52;101066.60;1695109;83;21079;-88
2022/06/01 03:02:57;;;;;;;13.60;8.60;;;;;;;12.51;73.42;101065.73;1752305;80;21780;-88
2022/06/01 03:05:27;;;;;;;9.58;8.60;;;;;;;12.51;73.41;101063.09;1713257;83;21080;-86
2022/06/01 03:07:54;;;;;;;10.05;8.98;;;;;;;12.50;73.38;101049.44;1740232;82;21047;-86
2022/06/01 03:10:21;;;;;;;11.93;9.40;;;;;;;12.48;73.31;101046.28;1744469;81;21074;-86
2022/06/01 03:12:48;;;;;;;11.53;9.85;;;;;;;12.43;73.32;101048.84;1713186;82;21129;-86
2022/06/01 03:15:16;;;;;;;10.75;9.53;;;;;;;12.41;73.43;101050.12;1711045;82;22621;-86
2022/06/01 03:17:43;;;;;;;9.75;8.78;;;;;;;12.42;73.61;101057.59;1714611;82;21048;-87
2022/06/01 03:20:21;;;;;;;10.38;8.98;;;;;;;12.43;73.63;101051.48;1754821;81;21588;-87
2022/06/01 03:22:48;;;;;;;9.63;8.58;;;;;;;12.46;73.71;101038.32;1766667;80;21044;-86
2022/06/01 03:25:18;;;;;;;11.40;8.75;;;;;;;12.47;73.76;101040.56;1759865;80;21058;-85
2022/06/01 03:27:45;;;;;;;10.13;8.40;;;;;;;12.45;73.72;101043.16;1770795;80;22651;-86
2022/06/01 03:30:15;;;;;;;10.10;8.40;;;;;;;12.43;73.77;101044.44;1772822;80;21087;-84
2022/06/01 03:32:46;;;;;;;9.63;8.63;;;;;;;12.44;73.82;101051.92;1770334;80;21064;-86
2022/06/01 03:35:14;;;;;;;10.58;8.58;;;;;;;12.46;73.99;101055.48;1766348;80;21290;-87
2022/06/01 03:37:41;;;;;;;9.85;8.55;;;;;;;12.44;73.96;101044.92;1731337;82;22321;-86
2022/06/01 03:40:09;;;;;;;9.48;8.58;;;;;;;12.44;73.94;101045.32;1770258;80;21744;-87
2022/06/01 03:42:37;;;;;;;10.95;8.95;;;;;;;12.40;74.00;101047.00;1733147;82;21090;-87
2022/06/01 03:47:56;;;;;;;8.78;7.87;;;;;;;12.36;74.11;101048.23;1751416;80;21262;-86
2022/06/01 03:50:25;;;;;;;8.88;7.97;;;;;;;12.36;74.14;101054.83;1743774;82;21249;-86
2022/06/01 03:52:52;;;;;;;9.65;7.80;;;;;;;12.38;74.24;101053.11;1774309;78;21757;-88
2022/06/01 03:55:20;;;;;;;9.85;6.62;;;;;;;12.40;74.36;101046.11;1778205;78;21228;-88
2022/06/01 03:57:50;;;;;;;10.60;7.62;;;;;;;12.39;74.22;101048.31;1774363;80;21623;-89
2022/06/01 04:00:22;;;;;;;8.65;7.55;;;;;;;12.41;74.34;101047.91;1772149;80;21085;-89
2022/06/01 04:02:49;;;;;;;11.20;7.62;;;;;;;12.45;74.47;101049.76;1732763;80;21101;-88
2022/06/01 04:05:16;;;;;;;7.10;6.40;;;;;;;12.51;74.54;101041.96;1769806;78;21752;-88
2022/06/01 04:07:46;;;;;;;9.13;6.80;;;;;;;12.58;74.60;101041.24;1769209;78;21077;-89
2022/06/01 04:10:13;;;;;;;8.98;6.42;;;;;;;12.64;74.59;101036.08;1779380;78;21100;-87
2022/06/01 04:12:42;;;;;;;10.13;6.55;;;;;;;12.74;74.62;101041.56;1794378;78;21097;-88
2022/06/01 04:15:09;;;;;;;8.05;6.80;;;;;;;12.79;74.63;101038.59;1759686;78;21749;-88
2022/06/01 04:17:36;;;;;;;7.28;6.58;;;;;;;12.85;74.62;101040.03;1765792;78;21685;-86
2022/06/01 04:20:03;;;;;;;6.50;5.60;;;;;;;12.94;74.65;101038.02;1757205;78;21051;-86
2022/06/01 04:22:30;;;;;;;7.08;6.33;;;;;;;12.97;74.39;101029.72;1778440;80;21567;-89
2022/06/01 04:24:57;;;;;;;6.20;4.58;;;;;;;13.01;74.29;101032.88;1773364;80;20996;-88
2022/06/01 04:27:26;;;;;;;6.08;4.70;;;;;;;13.05;74.20;101034.27;1755238;81;21734;-89
2022/06/01 04:29:52;;;;;;;5.95;4.87;;;;;;;13.14;74.24;101034.01;1746805;81;21788;-86
2022/06/01 04:32:28;;;;;;;5.58;4.58;;;;;;;13.28;74.25;101034.25;1748279;81;21089;-86
2022/06/01 04:34:57;;;;;;;8.83;7.22;;;;;;;13.39;74.14;101026.56;1727334;81;21072;-85
2022/06/01 04:37:37;;;;;;;6.05;4.37;;;;;;;13.51;73.98;101028.08;1746654;80;21089;-88
2022/06/01 04:40:06;;;;;;;5.62;5.00;;;;;;;13.55;73.70;101020.69;1743728;81;21061;-91
2022/06/01 04:42:34;;;;;;;5.28;4.35;;;;;;;13.73;73.87;101023.17;1715028;83;21796;-91
2022/06/01 04:45:09;;;;;;;6.12;4.92;;;;;;;14.00;74.00;101027.99;1743249;81;21031;-89
2022/06/01 04:47:36;;;;;;;4.90;4.40;;;;;;;14.32;73.74;101036.84;1744629;81;21040;-85
2022/06/01 04:50:03;;;;;;;6.25;4.70;;;;;;;14.62;73.56;101019.63;1747260;81;21070;-86
2022/06/01 04:52:33;;;;;;;4.90;4.40;;;;;;;15.10;73.80;101010.48;1758926;81;21591;-89
2022/06/01 04:54:58;;;;;;;6.00;4.22;;;;;;;15.72;73.15;101010.61;1737432;80;21765;-87
2022/06/01 04:57:41;;;;;;;4.12;3.70;;;;;;;16.13;72.37;101010.94;1763162;81;21055;-94
2022/06/01 05:00:15;;;;;;;3.75;3.45;;;;;;;16.69;72.67;101005.92;1762612;80;21106;-93
2022/06/01 05:02:48;;;;;;;;;;;;;;;18.61;72.35;100996.63;1767643;81;21055;-91
2022/06/01 05:05:14;;;;;;;3.45;3.15;;;;;;;19.34;69.17;100991.81;1760543;81;20183;-93
2022/06/01 05:07:44;;;;;;;4.45;3.30;;;;;;;19.02;66.77;100982.23;1730513;81;21692;-87
2022/06/01 05:10:11;;;;;;;4.83;3.10;;;;;;;19.09;67.74;100990.19;1730532;81;21119;-88
2022/06/01 05:13:02;;;;;;;4.22;3.02;;;;;;;20.32;67.40;100986.48;1682384;85;21039;-91
2022/06/01 05:15:50;;;;;;;4.65;3.05;;;;;;;20.23;65.37;100982.11;1720582;83;21052;-89
2022/06/01 05:18:22;;;;;;;3.65;2.87;;;;;;;21.19;66.93;100991.61;1763624;81;21023;-90
2022/06/01 05:20:53;;;;;;;3.65;2.80;;;;;;;23.23;65.98;100994.47;1764581;81;21801;-91
2022/06/01 05:23:23;;;;;;;2.52;2.30;;;;;;;24.35;62.69;100992.06;1734834;81;21031;-88
2022/06/01 05:25:57;;;;;;;2.75;2.30;;;;;;;25.50;60.98;101001.16;1748538;80;21326;-92
2022/06/01 05:28:28;;;;;;;2.52;2.08;;;;;;;25.14;58.26;100983.02;1775352;80;21058;-88
2022/06/01 05:31:06;;;;;;;3.90;2.50;;;;;;;24.97;57.41;100992.50;1778406;80;21121;-88
2022/06/01 05:34:24;;;;;;;3.90;2.80;;;;;;;24.96;56.40;100994.80;1778016;80;21821;-91
2022/06/01 05:37:02;;;;;;;3.70;2.67;;;;;;;25.58;56.97;101003.16;1754561;80;21062;-92
2022/06/01 05:39:29;;;;;;;3.20;2.47;;;;;;;25.98;54.15;100980.71;1781689;80;21038;-87
2022/06/01 05:41:55;;;;;;;2.65;2.33;;;;;;;24.94;52.54;100992.58;1787271;80;21089;-87
2022/06/01 05:44:24;;;;;;;4.17;2.52;;;;;;;23.97;52.96;100996.70;1769897;80;21024;-89
2022/06/01 05:46:56;;;;;;;4.05;2.50;;;;;;;23.22;53.07;101007.48;1766908;80;21878;-86
2022/06/01 05:50:02;;;;;;;4.12;2.60;;;;;;;22.52;53.09;101008.52;1769959;80;21039;-94
2022/06/01 05:52:39;;;;;;;3.50;2.40;;;;;;;21.64;53.13;101009.22;1767957;81;21084;-87
2022/06/01 05:55:18;;;;;;;3.17;2.58;;;;;;;20.67;53.63;101007.95;1767853;81;21086;-87
2022/06/01 05:57:48;;;;;;;6.90;2.67;;;;;;;19.97;54.72;101008.67;1753236;80;21778;-87
2022/06/01 06:00:27;;;;;;;4.33;2.98;;;;;;;19.79;55.63;101000.83;1760024;81;21793;-90
2022/06/01 06:02:53;;;;;;;4.90;2.70;;;;;;;19.65;55.63;101000.02;1759742;80;21023;-90
2022/06/01 06:08:36;;;;;;;5.17;2.25;;;;;;;19.19;55.96;100995.47;1761358;81;21578;-87
2022/06/01 06:15:02;;;;;;;2.95;2.60;;;;;;;18.58;56.06;100996.67;1760715;81;21521;-92
2022/06/01 06:17:36;;;;;;;2.98;2.50;;;;;;;18.35;57.03;100990.52;1761546;81;21070;-87
2022/06/01 06:20:03;;;;;;;;;;;;;;;18.46;57.52;100986.91;1765319;80;21070;-87
2022/06/01 06:22:36;;;;;;;2.95;2.35;;;;;;;18.61;57.58;100990.42;1781495;80;20998;-92
2022/06/01 06:25:11;;;;;;;5.20;2.70;;;;;;;18.86;57.81;100995.21;1770429;80;21037;-91
2022/06/01 06:27:38;;;;;;;4.05;2.42;;;;;;;19.13;57.90;100986.64;1760682;80;22925;-88
2022/06/01 06:30:46;;;;;;;2.90;2.58;;;;;;;19.21;56.86;100991.00;1753902;81;21037;-93
2022/06/01 06:33:13;;;;;;;4.10;2.15;;;;;;;19.08;56.92;100987.98;1768361;80;21249;-89
2022/06/01 06:35:40;;;;;;;2.98;2.10;;;;;;;19.19;57.50;100987.47;1780312;80;21113;-92
2022/06/01 06:38:08;;;;;;;6.80;2.25;;;;;;;19.25;56.96;100957.63;1777058;80;21022;-90
2022/06/01 06:48:33;;;;;;;4.50;2.47;;;;;;;19.81;56.31;100972.31;1777401;80;21010;-94
2022/06/01 06:51:01;;;;;;;3.72;2.35;;;;;;;19.42;55.65;100973.06;1773894;80;21671;-87
2022/06/01 06:53:28;;;;;;;4.50;2.62;;;;;;;19.11;56.17;100963.09;1779336;80;21780;-92
2022/06/01 06:55:55;;;;;;;3.52;2.45;;;;;;;19.10;56.22;100959.96;1784496;80;21761;-90
2022/06/01 06:58:22;;;;;;;3.17;2.60;;;;;;;18.92;56.04;100960.53;1782215;80;21555;-91
2022/06/01 07:00:49;;;;;;;5.25;2.75;;;;;;;18.85;56.46;100956.12;1741805;81;21048;-92
2022/06/01 07:03:15;;;;;;;4.47;2.50;;;;;;;18.72;56.32;100955.27;1742048;82;21043;-88
2022/06/01 07:08:27;;;;;;;3.02;2.55;;;;;;;18.60;56.80;100953.98;1753075;80;21810;-87
2022/06/01 07:10:55;;;;;;;3.52;2.47;;;;;;;18.76;57.05;100943.68;1753699;81;21311;-88
2022/06/01 07:13:24;;;;;;;4.47;2.83;;;;;;;18.92;57.01;100944.95;1774880;80;21089;-90
2022/06/01 07:16:14;;;;;;;4.45;2.83;;;;;;;19.08;56.90;100942.63;1752337;81;21385;-88
2022/06/01 07:18:44;;;;;;;4.80;2.70;;;;;;;19.09;56.45;100939.50;1758558;80;21078;-87
2022/06/01 07:21:49;;;;;;;3.60;2.45;;;;;;;18.85;56.61;100933.45;1779167;80;21768;-91
2022/06/01 07:24:16;;;;;;;4.03;2.67;;;;;;;19.12;57.14;100929.69;1778745;80;21073;-87
2022/06/01 07:26:44;;;;;;;3.80;2.27;;;;;;;19.60;56.76;100924.85;1736856;81;21594;-91
2022/06/01 07:29:11;;;;;;;3.98;2.58;;;;;;;19.55;56.30;100917.78;1777093;80;21068;-91
2022/06/01 07:31:38;;;;;;;4.70;3.17;;;;;;;19.57;56.35;100921.32;1776275;80;21014;-92
2022/06/01 07:34:05;;;;;;;3.42;2.50;;;;;;;19.64;56.05;100924.38;1750125;81;21745;-87
2022/06/01 07:36:43;;;;;;;4.62;2.27;;;;;;;19.65;55.98;100923.45;1753608;81;21130;-91
2022/06/01 07:43:06;;;;;;;4.83;2.70;;;;;;;20.05;55.80;100923.55;1766214;80;21156;-92
2022/06/01 07:46:47;;;;;;;5.25;2.67;;;;;;;20.16;55.26;100923.85;1790771;80;21062;-93
2022/06/01 07:49:20;;;;;;;2.98;2.25;;;;;;;20.25;55.27;100913.94;1785031;80;22419;-93
2022/06/01 07:51:49;;;;;;;3.30;2.60;;;;;;;20.22;54.70;100916.21;1713268;83;21131;-87
2022/06/01 07:54:35;;;;;;;4.10;2.62;;;;;;;20.02;54.67;100915.56;1711476;83;21063;-92
2022/06/01 07:57:03;;;;;;;3.92;2.42;;;;;;;20.08;55.03;100915.02;1728746;81;21089;-86
2022/06/01 07:59:30;;;;;;;6.85;3.25;;;;;;;19.94;54.53;100915.19;1709958;83;21085;-87
2022/06/01 08:02:43;;;;;;;3.62;2.85;;;;;;;19.65;54.62;100911.44;1741340;82;21750;-92
2022/06/01 08:05:11;;;;;;;3.40;2.52;;;;;;;19.67;54.99;100911.43;1738855;80;21679;-86
2022/06/01 08:07:38;;;;;;;3.98;2.65;;;;;;;19.64;54.95;100912.36;1760346;81;21070;-87
2022/06/01 08:14:06;;;;;;;4.10;2.75;;;;;;;19.80;55.25;100906.42;1784603;80;21497;-93
2022/06/01 08:20:32;;;;;;;3.90;2.60;;;;;;;19.93;54.45;100903.17;1785064;80;21078;-92
2022/06/01 08:26:59;;;;;;;8.48;2.80;;;;;;;19.62;54.71;100897.68;1786941;80;21120;-94
2022/06/01 08:33:23;;;;;;;4.10;2.40;;;;;;;19.72;54.98;100901.17;1789626;80;21552;-87
2022/06/01 08:43:58;;;;;;;3.60;2.17;;;;;;;20.66;54.46;100890.69;1757417;80;21102;-87
2022/06/01 08:46:40;;;;;;;6.35;2.47;;;;;;;21.00;53.52;100878.59;1758082;81;21028;-92
2022/06/01 08:49:12;;;;;;;2.92;2.58;;;;;;;21.03;52.99;100880.77;1779833;80;22404;-87
2022/06/01 08:51:39;;;;;;;3.15;2.40;;;;;;;21.03;52.99;100880.77;1788774;80;21656;-87
2022/06/01 08:58:19;;;;;;;2.45;2.15;;;;;;;20.99;52.97;100883.08;1787426;80;21495;-93
2022/06/01 09:01:00;;;;;;;3.10;2.65;;;;;;;20.99;52.94;100883.08;1776951;80;21052;-87
2022/06/01 09:04:22;;;;;;;5.05;2.47;;;;;;;21.02;53.14;100888.39;1752553;80;21714;-92
2022/06/01 09:06:52;;;;;;;3.27;2.47;;;;;;;20.99;52.94;100889.77;1786551;79;21643;-87
2022/06/01 09:09:40;;;;;;;6.20;2.40;;;;;;;20.74;52.64;100882.55;1787099;79;21050;-92
2022/06/01 09:16:01;;;;;;;6.80;2.52;;;;;;;20.45;53.27;100878.48;1743825;82;21082;-92
2022/06/01 09:18:32;;;;;;;6.22;3.17;;;;;;;20.20;53.28;100881.48;1737622;81;21811;-86
2022/06/01 09:23:45;;;;;;;6.87;3.02;;;;;;;19.71;53.40;100874.47;1757914;81;21902;-86
2022/06/01 09:26:50;;;;;;;3.77;2.92;;;;;;;19.56;53.92;100868.84;1737017;81;21066;-93
2022/06/01 09:29:21;;;;;;;4.70;3.85;;;;;;;19.44;54.09;100856.47;1713469;83;21216;-86
2022/06/01 09:31:48;;;;;;;4.87;2.92;;;;;;;19.47;54.23;100867.14;1712068;82;21794;-87
2022/06/01 09:34:23;;;;;;;4.97;3.60;;;;;;;19.53;54.30;100863.06;1712946;83;21452;-87
2022/06/01 09:37:13;;;;;;;6.35;3.15;;;;;;;19.71;54.32;100855.32;1713868;83;21082;-92
2022/06/01 09:39:50;;;;;;;3.70;3.30;;;;;;;20.00;54.35;100850.98;1700221;83;21107;-88
2022/06/01 09:42:25;;;;;;;3.47;3.15;;;;;;;20.29;54.02;100845.73;1707645;83;21068;-92
2022/06/01 09:45:08;;;;;;;4.67;3.35;;;;;;;20.43;53.78;100836.17;1714105;82;21840;-92
2022/06/01 09:47:42;;;;;;;3.77;2.75;;;;;;;20.62;53.81;100843.97;1673360;85;21146;-86
2022/06/01 09:50:29;;;;;;;3.80;2.98;;;;;;;20.74;53.54;100849.11;1684168;83;21109;-86
2022/06/01 09:57:22;;;;;;;5.25;3.65;;;;;;;20.63;52.98;100837.27;1652105;86;21095;-93
2022/06/01 10:06:34;;;;;;;5.20;3.40;;;;;;;20.86;52.52;100821.30;1672025;83;21324;-87
2022/06/01 10:09:11;;;;;;;4.80;3.55;;;;;;;21.01;52.56;100815.69;1774461;80;21107;-92
2022/06/01 10:15:45;;;;;;;3.83;3.33;;;;;;;21.44;52.01;100808.69;1783393;80;22560;-92
2022/06/01 10:19:02;;;;;;;3.85;3.10;;;;;;;21.68;51.67;100771.20;1788974;80;20991;-92
2022/06/01 10:21:33;;;;;;;4.97;2.98;;;;;;;22.28;51.30;100790.91;1789759;80;21050;-87
2022/06/01 10:28:15;;;;;;;3.72;2.87;;;;;;;22.90;50.36;100786.75;1750432;81;21047;-91
2022/06/01 10:34:53;;;;;;;5.47;3.98;;;;;;;23.33;49.22;100772.22;1734920;82;21078;-93
2022/06/01 10:41:30;;;;;;;4.20;3.10;;;;;;;23.41;48.79;100757.23;1733432;82;21094;-87
2022/06/01 10:44:02;;;;;;;5.78;3.33;;;;;;;24.00;48.57;100761.80;1730235;81;21277;-87
2022/06/01 10:46:37;;;;;;;3.85;2.92;;;;;;;24.10;47.80;100770.02;1763461;81;21782;-88
2022/06/01 10:49:34;;;;;;;3.15;2.85;;;;;;;24.00;47.60;100769.87;1679813;85;21102;-87
2022/06/01 10:52:24;;;;;;;3.47;3.08;;;;;;;24.02;47.44;100768.87;1763428;80;21557;-87
2022/06/01 10:58:50;;;;;;;2.92;2.65;;;;;;;24.03;46.75;100766.63;1764133;81;21090;-93
2022/06/01 11:05:48;;;;;;;4.03;2.95;;;;;;;24.31;46.70;100774.31;1764649;81;21051;-93
2022/06/01 11:12:36;;;;;;;4.10;3.70;;;;;;;23.93;46.21;100770.97;1764143;81;21067;-91
2022/06/01 11:19:11;;;;;;;;;;;;;;;23.36;46.45;100764.06;1760373;81;21770;-87
2022/06/01 11:21:56;;;;;;;4.83;3.72;;;;;;;23.24;46.53;100763.95;1743727;80;20918;-87
2022/06/01 11:25:03;;;;;;;6.33;4.47;;;;;;;23.01;46.62;100759.17;1731893;81;21588;-86
2022/06/01 11:27:58;;;;;;;5.05;3.92;;;;;;;22.95;46.67;100761.12;1735692;81;21114;-87
2022/06/01 11:34:24;;;;;;;4.33;3.93;;;;;;;22.59;46.99;100769.19;1748737;82;21077;-91
2022/06/01 11:37:46;;;;;;;4.62;3.52;;;;;;;22.52;47.02;100775.14;1712537;83;21033;-93
2022/06/01 11:40:39;;;;;;;6.25;3.58;;;;;;;22.48;47.13;100768.97;1731332;82;21049;-87
2022/06/01 11:43:30;;;;;;;3.90;3.57;;;;;;;22.56;47.20;100766.13;1678972;83;21068;-86
2022/06/01 11:46:06;;;;;;;4.00;3.60;;;;;;;22.69;47.12;100768.92;1715745;81;21062;-86
2022/06/01 11:52:53;;;;;;;3.70;3.17;;;;;;;22.54;47.07;100766.59;1741684;82;21050;-90
2022/06/01 12:03:36;;;;;;;7.40;5.87;;;;;;;21.55;48.17;100775.45;1779239;80;21058;-92
2022/06/01 12:06:11;;;;;;;;;;;;;;;21.04;48.71;100770.58;1772805;80;22632;-86
2022/06/01 12:08:52;;;;;;;3.27;2.98;;;;;;;20.65;49.38;100773.93;1762449;80;20813;-92
2022/06/01 12:19:21;;;;;;;5.75;1.90;;;;;;;18.91;48.92;100769.37;1764471;80;21102;-87
2022/06/01 12:21:57;;;;;;;5.50;2.00;;;;;;;18.41;49.99;100786.19;1765928;80;22416;-92
2022/06/01 12:28:35;;;;;;;5.85;2.65;;;;;;;17.59;51.56;100772.36;1749336;81;21039;-92
2022/06/01 12:35:14;;;;;;;10.23;4.87;;;;;;;16.97;53.55;100782.24;1716341;83;21244;-88
2022/06/01 12:38:37;;;;;;;7.40;4.87;;;;;;;16.63;55.18;100793.27;1783384;80;21995;-92
2022/06/01 12:41:19;;;;;;;7.65;4.83;;;;;;;16.41;56.02;100811.84;1783010;80;21058;-86
2022/06/01 12:44:14;;;;;;;7.50;4.53;;;;;;;16.11;57.13;100816.19;1781642;80;21028;-89
2022/06/01 12:58:40;;;;;;;5.62;4.72;;;;;;;15.16;59.91;100811.67;1781694;80;21070;-87
2022/06/01 13:01:08;;;;;;;7.75;4.42;;;;;;;15.08;60.63;100797.05;1783270;80;21603;-87
2022/06/01 13:03:35;;;;;;;7.62;4.22;;;;;;;15.06;60.99;100805.42;1751138;81;21002;-88
2022/06/01 13:06:06;;;;;;;8.98;4.80;;;;;;;15.04;61.15;100801.88;1718951;81;21069;-88
2022/06/01 13:08:37;;;;;;;6.85;4.70;;;;;;;15.04;61.70;100795.70;1723952;81;23374;-87
2022/06/01 13:11:22;;;;;;;7.33;4.47;;;;;;;15.09;62.00;100800.57;1765698;80;21556;-88
2022/06/01 13:13:51;;;;;;;8.60;4.08;;;;;;;15.15;62.24;100814.77;1777393;80;21097;-88
2022/06/01 13:20:17;;;;;;;5.30;4.30;;;;;;;15.26;62.46;100808.64;1784173;80;21070;-89
2022/06/01 13:26:52;;;;;;;4.55;3.90;;;;;;;15.39;62.85;100826.86;1784062;80;21518;-90
2022/06/01 13:33:00;;;;;;;5.70;3.67;;;;;;;15.48;63.11;100839.73;1769814;79;21070;-86
2022/06/01 13:35:39;;;;;;;4.80;4.23;;;;;;;15.59;63.50;100836.27;1767809;80;21039;-87
2022/06/01 13:38:20;;;;;;;4.72;3.50;;;;;;;15.59;63.50;100836.27;1767802;79;22154;-88
2022/06/01 13:44:55;;;;;;;4.75;4.22;;;;;;;15.87;63.68;100841.32;1786598;80;21634;-87
2022/06/01 13:47:48;;;;;;;6.12;3.37;;;;;;;16.15;63.56;100844.97;1782384;80;21066;-89
2022/06/01 13:54:28;;;;;;;3.20;2.52;;;;;;;16.62;63.37;100847.31;1787284;80;21700;-90
2022/06/01 14:01:42;;;;;;;4.92;2.65;;;;;;;17.33;62.30;100848.70;1787407;80;21018;-91
2022/06/01 14:04:42;;;;;;;5.35;2.95;;;;;;;17.67;61.74;100854.84;1751845;81;21023;-88
2022/06/01 14:11:13;;;;;;;3.65;2.50;;;;;;;18.44;61.53;100859.44;1757653;81;21040;-91
2022/06/01 14:17:44;;;;;;;3.62;3.22;;;;;;;19.02;59.31;100858.19;1757389;81;21056;-90
2022/06/01 14:20:32;;;;;;;3.83;2.85;;;;;;;18.74;59.39;100861.93;1757650;81;21087;-90
2022/06/01 14:23:00;;;;;;;5.87;2.40;;;;;;;18.61;59.14;100867.79;1750151;81;21048;-87
2022/06/01 14:29:12;;;;;;;2.40;1.80;;;;;;;18.31;58.57;100871.06;1786491;80;21086;-88
2022/06/01 14:31:40;;;;;;;4.25;2.15;;;;;;;18.34;58.50;100871.05;1785999;80;21065;-88
2022/06/01 14:34:24;;;;;;;3.67;2.00;;;;;;;18.40;58.32;100869.68;1752491;79;21043;-90
2022/06/01 14:37:18;;;;;;;3.90;1.80;;;;;;;18.33;57.98;100882.59;1746404;82;21634;-89
2022/06/01 14:40:03;;;;;;;2.83;1.57;;;;;;;18.04;57.81;100884.94;1742342;81;21767;-91
2022/06/01 14:42:32;;;;;;;2.35;1.60;;;;;;;17.67;57.95;100878.34;1746036;81;21314;-92
2022/06/01 14:45:00;;;;;;;1.87;1.70;;;;;;;17.43;58.29;100881.05;1750557;81;21034;-90
2022/06/01 14:47:49;;;;;;;2.47;1.70;;;;;;;17.15;58.52;100870.87;1754916;80;21500;-93
2022/06/01 14:50:31;;;;;;;2.95;2.35;;;;;;;17.03;59.07;100869.11;1747001;81;21847;-90
2022/06/01 14:53:24;;;;;;;3.70;3.17;;;;;;;16.94;59.16;100867.77;1761344;81;21768;-90
2022/06/01 14:55:51;;;;;;;2.87;2.08;;;;;;;16.99;59.59;100868.67;1737416;81;21363;-92
2022/06/01 14:58:19;;;;;;;2.00;1.72;;;;;;;17.04;59.64;100872.20;1765450;81;21044;-89
2022/06/01 15:04:46;;;;;;;1.77;1.47;;;;;;;17.12;59.28;100868.20;1763739;81;21098;-90
2022/06/01 15:07:15;;;;;;;4.08;1.95;;;;;;;17.17;58.92;100871.75;1745171;81;21796;-91
2022/06/01 15:09:55;;;;;;;4.55;3.65;;;;;;;17.32;58.85;100878.39;1746271;81;21723;-91
2022/06/01 15:12:22;;;;;;;1.80;1.35;;;;;;;17.39;58.37;100882.83;1733592;81;21074;-91
2022/06/01 15:14:49;;;;;;;1.20;1.10;;;;;;;17.53;58.18;100878.84;1752089;81;21012;-91
2022/06/01 15:18:03;;;;;;;1.52;1.20;;;;;;;17.62;57.92;100870.81;1763768;81;21046;-92
2022/06/01 15:20:41;;;;;;;1.30;1.00;;;;;;;17.68;57.87;100886.79;1763872;81;21800;-92